This is the latest recevied weather packets stored in our database for station/object KF4PPJ. If no packets are shown the sender has not sent any weather packets the latest 10 day(s).
| Time | Temp. | Humidity | Pressure | Rain* | Wind** | Luminosity | Snow |
|---|---|---|---|---|---|---|---|
| 1777684026 | 21.67° C | 44% | 1017.1 hPa | 0 mm | - | 139 W/m² | - |
| 1777683721 | 21.67° C | 43% | 1017.3 hPa | 0 mm | - | 166 W/m² | - |
| 1777683419 | 21.67° C | 43% | 1017 hPa | 0 mm | - | 177 W/m² | - |
| 1777683116 | 21.67° C | 44% | 1017.2 hPa | 0 mm | - | 157 W/m² | - |
| 1777682812 | 21.67° C | 45% | 1017.1 hPa | 0 mm | - | 143 W/m² | - |
| 1777682509 | 21.67° C | 44% | 1017.2 hPa | 0 mm | - | 133 W/m² | - |
| 1777682207 | 22.22° C | 42% | 1016.8 hPa | 0 mm | - | 150 W/m² | - |
| 1777681904 | 22.22° C | 44% | 1017.1 hPa | 0 mm | - | 180 W/m² | - |
| 1777681600 | 22.22° C | 43% | 1017.1 hPa | 0 mm | - | 232 W/m² | - |
| 1777681298 | 22.22° C | 44% | 1017.3 hPa | 0 mm | - | 426 W/m² | - |
| 1777680995 | 22.22° C | 43% | 1017.1 hPa | 0 mm | - | 217 W/m² | - |
| 1777680692 | 22.22° C | 44% | 1017.2 hPa | 0 mm | - | 298 W/m² | - |
| 1777680390 | 22.22° C | 44% | 1017 hPa | 0 mm | - | 249 W/m² | - |
| 1777680087 | 22.78° C | 44% | 1017.1 hPa | 0 mm | - | 446 W/m² | - |
| 1777679783 | 22.78° C | 43% | 1017 hPa | 0 mm | - | 259 W/m² | - |
| 1777679480 | 22.78° C | 45% | 1017.1 hPa | 0 mm | - | 224 W/m² | - |
| 1777679175 | 22.22° C | 44% | 1016.9 hPa | 0 mm | - | 272 W/m² | - |
| 1777678873 | 22.22° C | 46% | 1016.8 hPa | 0 mm | - | 231 W/m² | - |
| 1777678571 | 21.67° C | 51% | 1017.1 hPa | 0 mm | - | 375 W/m² | - |
| 1777678268 | 20.56° C | 58% | 1017.1 hPa | 0 mm | - | 375 W/m² | - |
| 1777677963 | 20.56° C | 59% | 1017.2 hPa | 0 mm | - | 311 W/m² | - |
| 1777677661 | 20.56° C | 59% | 1017.1 hPa | 0 mm | - | 371 W/m² | - |
| 1777677359 | 20.56° C | 60% | 1017.3 hPa | 0 mm | - | 347 W/m² | - |
| 1777677056 | 20° C | 60% | 1017.3 hPa | 0 mm | - | 345 W/m² | - |
| 1777676755 | 20° C | 59% | 1017.5 hPa | 0 mm | - | 300 W/m² | - |
* Rain latest hour (hover to see other rain measurements)
** Current wind speed in m/s (hover to see current wind gust speed)